Time;durP1;ratioP1;P1;durP2;ratioP2;P2;SDS_P1;SDS_P2;PMS_P1;PMS_P2;Temp;Humidity;BMP_temperature;BMP_pressure;BME280_temperature;BME280_humidity;BME280_pressure;Samples;Min_cycle;Max_cycle;Signal;HPM_P1;HPM_P2
2023/10/16 00:01:10;;;;;;;7.93;1.30;;;;;;;;;;5078750;28;20490;-81
2023/10/16 00:03:42;;;;;;;9.30;1.30;;;;;;;;;;5067746;28;20041;-81
2023/10/16 00:06:12;;;;;;;7.93;1.70;;;;;;;;;;5072331;28;20386;-81
2023/10/16 00:08:47;;;;;;;8.45;1.52;;;;;;;;;;5078424;28;20090;-81
2023/10/16 00:11:13;;;;;;;9.40;1.50;;;;;;;;;;5075529;28;20049;-81
2023/10/16 00:13:39;;;;;;;8.15;1.33;;;;;;;;;;5078426;28;20044;-81
2023/10/16 00:16:08;;;;;;;7.20;1.42;;;;;;;;;;5081463;28;20098;-81
2023/10/16 00:18:35;;;;;;;6.43;1.50;;;;;;;;;;5077000;28;20066;-80
2023/10/16 00:21:05;;;;;;;8.18;1.50;;;;;;;;;;5085279;28;20053;-81
2023/10/16 00:23:37;;;;;;;9.30;1.50;;;;;;;;;;5075379;28;20033;-81
2023/10/16 00:26:04;;;;;;;6.20;1.20;;;;;;;;;;5077327;28;20041;-80
2023/10/16 00:28:32;;;;;;;6.28;1.15;;;;;;;;;;5070956;28;20051;-80
2023/10/16 00:30:58;;;;;;;7.57;1.20;;;;;;;;;;5076810;28;20085;-80
2023/10/16 00:33:24;;;;;;;6.65;1.08;;;;;;;;;;5080916;28;20097;-81
2023/10/16 00:35:53;;;;;;;6.72;1.17;;;;;;;;;;5079128;28;20048;-80
2023/10/16 00:38:22;;;;;;;7.82;1.75;;;;;;;;;;5077061;28;20132;-81
2023/10/16 00:43:34;;;;;;;6.55;1.40;;;;;;;;;;5084667;28;20490;-81
2023/10/16 00:46:08;;;;;;;10.02;1.35;;;;;;;;;;5071087;28;20041;-80
2023/10/16 00:48:35;;;;;;;6.65;1.45;;;;;;;;;;5055827;28;20064;-80
2023/10/16 00:51:07;;;;;;;7.20;1.40;;;;;;;;;;5066356;28;20040;-81
2023/10/16 00:53:33;;;;;;;8.45;1.52;;;;;;;;;;5053575;28;20044;-80
2023/10/16 00:56:02;;;;;;;6.63;1.60;;;;;;;;;;5067988;28;20514;-80
2023/10/16 00:58:29;;;;;;;6.05;1.42;;;;;;;;;;5095956;28;20044;-80
2023/10/16 01:00:57;;;;;;;9.32;1.13;;;;;;;;;;5073806;28;20045;-81
2023/10/16 01:03:24;;;;;;;7.50;1.20;;;;;;;;;;5072415;28;20048;-81
2023/10/16 01:05:50;;;;;;;8.50;1.30;;;;;;;;;;5076597;28;20085;-81
2023/10/16 01:08:18;;;;;;;7.95;1.40;;;;;;;;;;5070844;28;20053;-81
2023/10/16 01:10:48;;;;;;;7.93;1.30;;;;;;;;;;5073229;28;20485;-81
2023/10/16 01:13:16;;;;;;;8.73;1.17;;;;;;;;;;5071847;28;20123;-81
2023/10/16 01:15:50;;;;;;;4.90;1.20;;;;;;;;;;5070870;28;20036;-81
2023/10/16 01:18:17;;;;;;;6.40;1.58;;;;;;;;;;5065977;28;20045;-80
2023/10/16 01:20:50;;;;;;;8.93;1.45;;;;;;;;;;5067378;28;20127;-80
2023/10/16 01:23:16;;;;;;;6.63;1.50;;;;;;;;;;5070416;28;20073;-80
2023/10/16 01:25:46;;;;;;;10.77;1.45;;;;;;;;;;5081114;28;20033;-80
2023/10/16 01:28:12;;;;;;;8.05;1.60;;;;;;;;;;5065851;28;20095;-80
2023/10/16 01:30:42;;;;;;;9.00;1.50;;;;;;;;;;5063093;28;20040;-80
2023/10/16 01:33:08;;;;;;;7.65;1.45;;;;;;;;;;5077180;28;20041;-80
2023/10/16 01:35:36;;;;;;;7.82;1.60;;;;;;;;;;5081088;28;20044;-80
2023/10/16 01:38:14;;;;;;;6.50;1.60;;;;;;;;;;5083656;28;20055;-80
2023/10/16 01:40:41;;;;;;;9.48;2.20;;;;;;;;;;5081793;28;20470;-80
2023/10/16 01:43:13;;;;;;;7.30;1.60;;;;;;;;;;5071985;28;20072;-80
2023/10/16 01:45:49;;;;;;;8.20;1.60;;;;;;;;;;5070425;28;20044;-80
2023/10/16 01:48:19;;;;;;;7.15;1.45;;;;;;;;;;5064607;28;20056;-80
2023/10/16 01:50:47;;;;;;;7.38;1.20;;;;;;;;;;5061364;28;20098;-80
2023/10/16 01:53:15;;;;;;;8.32;1.30;;;;;;;;;;5074543;28;20047;-80
2023/10/16 01:55:44;;;;;;;7.32;1.50;;;;;;;;;;5073553;28;20041;-80
2023/10/16 01:58:14;;;;;;;6.35;1.38;;;;;;;;;;5076145;28;20043;-80
2023/10/16 02:00:41;;;;;;;7.82;1.42;;;;;;;;;;5086281;28;20457;-80
2023/10/16 02:03:08;;;;;;;5.32;1.17;;;;;;;;;;5082050;28;20075;-80
2023/10/16 02:05:34;;;;;;;9.35;1.83;;;;;;;;;;5072315;28;20052;-80
2023/10/16 02:08:00;;;;;;;5.43;1.40;;;;;;;;;;5073823;28;20036;-80
2023/10/16 02:10:27;;;;;;;6.78;1.17;;;;;;;;;;5074037;28;20110;-80
2023/10/16 02:12:53;;;;;;;5.30;1.23;;;;;;;;;;5074548;28;20056;-80
2023/10/16 02:15:21;;;;;;;7.70;1.52;;;;;;;;;;5074905;28;20052;-80
2023/10/16 02:17:49;;;;;;;6.00;1.23;;;;;;;;;;5066157;28;20048;-81
2023/10/16 02:20:17;;;;;;;7.38;1.38;;;;;;;;;;5075513;28;20044;-80
2023/10/16 02:22:46;;;;;;;5.13;1.38;;;;;;;;;;5074548;28;20120;-80
2023/10/16 02:25:12;;;;;;;6.93;1.40;;;;;;;;;;5076078;28;20039;-80
2023/10/16 02:27:41;;;;;;;5.90;1.55;;;;;;;;;;5074723;28;20090;-80
2023/10/16 02:32:59;;;;;;;;;;;;;;;;;;5075860;28;20410;-80
2023/10/16 02:35:25;;;;;;;7.97;1.50;;;;;;;;;;5072894;28;19921;-81
2023/10/16 02:37:53;;;;;;;7.97;1.50;;;;;;;;;;5077124;28;20044;-80
2023/10/16 02:40:20;;;;;;;6.78;1.45;;;;;;;;;;5081202;28;20047;-80
2023/10/16 02:42:52;;;;;;;5.25;1.45;;;;;;;;;;5076594;28;20044;-80
2023/10/16 02:45:24;;;;;;;6.00;1.40;;;;;;;;;;5075964;28;20383;-80
2023/10/16 02:47:51;;;;;;;6.88;1.30;;;;;;;;;;5074728;28;20048;-80
2023/10/16 02:50:18;;;;;;;8.25;1.42;;;;;;;;;;5079117;28;20053;-80
2023/10/16 02:52:45;;;;;;;6.68;1.30;;;;;;;;;;5058966;28;20043;-80
2023/10/16 02:55:12;;;;;;;5.47;1.00;;;;;;;;;;5075651;28;20048;-80
2023/10/16 02:57:40;;;;;;;4.97;1.20;;;;;;;;;;5080638;28;20124;-80
2023/10/16 03:00:34;;;;;;;5.82;1.52;;;;;;;;;;5054618;28;20076;-80
2023/10/16 03:03:05;;;;;;;7.68;1.40;;;;;;;;;;5071190;28;20091;-80
2023/10/16 03:05:32;;;;;;;7.47;1.30;;;;;;;;;;5059788;28;20037;-80
2023/10/16 03:07:58;;;;;;;4.75;1.50;;;;;;;;;;5070955;28;20131;-80
2023/10/16 03:10:26;;;;;;;8.98;1.70;;;;;;;;;;5074107;28;20055;-80
2023/10/16 03:12:52;;;;;;;7.35;1.38;;;;;;;;;;5081257;28;20048;-80
2023/10/16 03:15:28;;;;;;;8.05;1.63;;;;;;;;;;5073573;28;20052;-80
2023/10/16 03:17:54;;;;;;;6.45;1.60;;;;;;;;;;5074920;28;20044;-80
2023/10/16 03:20:24;;;;;;;7.35;1.70;;;;;;;;;;5074630;28;20163;-80
2023/10/16 03:22:54;;;;;;;6.93;1.55;;;;;;;;;;5075197;28;20047;-80
2023/10/16 03:28:05;;;;;;;9.15;2.20;;;;;;;;;;5087277;28;20044;-80
2023/10/16 03:30:32;;;;;;;8.45;2.20;;;;;;;;;;5075383;28;20059;-80
2023/10/16 03:32:59;;;;;;;8.60;2.25;;;;;;;;;;5073462;28;20051;-80
2023/10/16 03:35:29;;;;;;;9.18;2.60;;;;;;;;;;5077197;28;20063;-80
2023/10/16 03:37:55;;;;;;;12.18;4.25;;;;;;;;;;5058558;28;20048;-80
2023/10/16 03:40:24;;;;;;;8.35;2.55;;;;;;;;;;5073031;28;20048;-80
2023/10/16 03:42:51;;;;;;;10.25;2.60;;;;;;;;;;5072510;28;20051;-80
2023/10/16 03:45:20;;;;;;;7.05;2.38;;;;;;;;;;5072208;28;20175;-80
2023/10/16 03:47:50;;;;;;;6.68;2.42;;;;;;;;;;5060934;28;20410;-80
2023/10/16 03:50:23;;;;;;;8.45;3.50;;;;;;;;;;5074011;28;20040;-80
2023/10/16 03:52:49;;;;;;;10.05;3.00;;;;;;;;;;5072224;28;20055;-80
2023/10/16 03:55:28;;;;;;;10.45;3.22;;;;;;;;;;5073499;28;20037;-80
2023/10/16 03:57:57;;;;;;;9.45;3.17;;;;;;;;;;5068274;28;20401;-81
2023/10/16 04:00:27;;;;;;;8.48;3.30;;;;;;;;;;5072517;28;20052;-81
2023/10/16 04:02:59;;;;;;;8.23;3.17;;;;;;;;;;5063613;28;20044;-80
2023/10/16 04:05:33;;;;;;;8.00;2.97;;;;;;;;;;5069623;28;20478;-80
2023/10/16 04:08:01;;;;;;;12.30;3.88;;;;;;;;;;5064890;28;20132;-80
2023/10/16 04:10:30;;;;;;;10.48;3.67;;;;;;;;;;5072794;28;20097;-80
2023/10/16 04:12:57;;;;;;;9.57;3.78;;;;;;;;;;5075522;28;20127;-80
2023/10/16 04:16:13;;;;;;;8.95;3.42;;;;;;;;;;5080901;28;20049;-80
2023/10/16 04:21:37;;;;;;;11.50;3.80;;;;;;;;;;5077221;28;20493;-80
2023/10/16 04:23:57;;;;;;;14.70;4.45;;;;;;;;;;5071661;28;20140;-80
2023/10/16 04:31:57;;;;;;;9.77;4.30;;;;;;;;;;5076348;28;20044;-80
2023/10/16 04:56:04;;;;;;;10.68;4.18;;;;;;;;;;5072635;28;20385;-80
2023/10/16 05:11:27;;;;;;;9.90;4.50;;;;;;;;;;5060648;28;20073;-80
2023/10/16 05:22:02;;;;;;;10.93;4.32;;;;;;;;;;5072700;28;20059;-80
2023/10/16 06:14:14;;;;;;;7.68;3.72;;;;;;;;;;5072725;28;20032;-80
2023/10/16 06:16:43;;;;;;;10.77;4.70;;;;;;;;;;5066660;28;20056;-80
2023/10/16 06:19:19;;;;;;;10.07;4.60;;;;;;;;;;5072023;28;20051;-80
2023/10/16 06:21:49;;;;;;;12.43;4.75;;;;;;;;;;5072815;28;20049;-80
2023/10/16 06:24:25;;;;;;;10.68;4.50;;;;;;;;;;5056057;28;20094;-80
2023/10/16 06:26:55;;;;;;;7.93;4.03;;;;;;;;;;5071674;28;20044;-80
2023/10/16 06:29:24;;;;;;;13.70;4.63;;;;;;;;;;5070797;28;20049;-80
2023/10/16 06:31:53;;;;;;;9.98;4.35;;;;;;;;;;5075086;28;20051;-80
2023/10/16 06:34:19;;;;;;;13.75;4.82;;;;;;;;;;5082197;28;20052;-80
2023/10/16 06:36:45;;;;;;;12.30;4.95;;;;;;;;;;5085168;28;20087;-80
2023/10/16 06:39:22;;;;;;;12.93;5.15;;;;;;;;;;5077788;28;20048;-80
2023/10/16 06:41:54;;;;;;;12.93;4.93;;;;;;;;;;5076700;28;20378;-80
2023/10/16 06:44:28;;;;;;;8.57;4.10;;;;;;;;;;5076679;28;20055;-80
2023/10/16 06:46:58;;;;;;;14.45;4.88;;;;;;;;;;5041619;28;20053;-80
2023/10/16 06:49:26;;;;;;;9.68;4.13;;;;;;;;;;5078162;28;20436;-80
2023/10/16 06:51:53;;;;;;;11.70;4.07;;;;;;;;;;5075683;28;20036;-80
2023/10/16 06:54:19;;;;;;;8.77;4.65;;;;;;;;;;5075496;28;20517;-80
2023/10/16 06:56:45;;;;;;;10.23;4.40;;;;;;;;;;5076491;28;20043;-80
2023/10/16 06:59:16;;;;;;;10.20;4.38;;;;;;;;;;5088933;28;20036;-80
2023/10/16 07:01:46;;;;;;;9.60;4.03;;;;;;;;;;5081502;28;20049;-80
2023/10/16 07:04:13;;;;;;;11.95;4.13;;;;;;;;;;5075109;28;20055;-80
2023/10/16 07:06:42;;;;;;;9.50;4.25;;;;;;;;;;5067077;28;20107;-80
2023/10/16 07:09:09;;;;;;;9.95;4.10;;;;;;;;;;5076115;28;20070;-80
2023/10/16 07:11:35;;;;;;;10.55;4.10;;;;;;;;;;5080525;28;20050;-80
2023/10/16 07:14:01;;;;;;;10.32;4.25;;;;;;;;;;5085814;28;20045;-80
2023/10/16 07:16:28;;;;;;;10.57;4.10;;;;;;;;;;5064704;28;20086;-80
2023/10/16 07:18:57;;;;;;;9.98;3.70;;;;;;;;;;5076652;28;20052;-80
2023/10/16 07:21:25;;;;;;;11.18;3.47;;;;;;;;;;5065957;28;20056;-80
2023/10/16 07:23:54;;;;;;;8.32;3.03;;;;;;;;;;5065826;28;20049;-80
2023/10/16 07:26:24;;;;;;;7.63;3.30;;;;;;;;;;5061531;28;20048;-80
2023/10/16 07:28:51;;;;;;;7.93;2.80;;;;;;;;;;5060558;28;20053;-80
2023/10/16 07:31:17;;;;;;;7.72;3.17;;;;;;;;;;5062334;28;20068;-80
2023/10/16 07:33:50;;;;;;;10.07;2.55;;;;;;;;;;5056028;28;20076;-80
2023/10/16 07:36:17;;;;;;;9.40;2.72;;;;;;;;;;5051162;28;20045;-81
2023/10/16 07:38:44;;;;;;;8.82;2.80;;;;;;;;;;5065244;28;20052;-81
2023/10/16 07:41:18;;;;;;;8.00;2.20;;;;;;;;;;5066833;28;20032;-80
2023/10/16 07:43:46;;;;;;;9.20;2.20;;;;;;;;;;5056056;28;20049;-80
2023/10/16 07:48:42;;;;;;;8.77;2.17;;;;;;;;;;5037770;28;20060;-80
2023/10/16 07:51:12;;;;;;;7.38;2.00;;;;;;;;;;5058313;28;20045;-80
2023/10/16 07:53:38;;;;;;;10.00;2.00;;;;;;;;;;5056179;28;20095;-80
2023/10/16 07:59:06;;;;;;;6.88;2.03;;;;;;;;;;5007578;28;20049;-80
2023/10/16 08:01:41;;;;;;;7.78;2.10;;;;;;;;;;5038906;28;20067;-80
2023/10/16 08:04:19;;;;;;;8.05;2.22;;;;;;;;;;5057061;28;20056;-80
2023/10/16 08:06:45;;;;;;;7.82;2.15;;;;;;;;;;5039767;28;20059;-81
2023/10/16 08:14:41;;;;;;;6.88;1.85;;;;;;;;;;5056031;28;20040;-80
2023/10/16 08:17:17;;;;;;;8.02;1.80;;;;;;;;;;5062341;28;20048;-80
2023/10/16 08:19:44;;;;;;;5.82;2.13;;;;;;;;;;5055890;28;20124;-80
2023/10/16 08:22:13;;;;;;;6.85;2.05;;;;;;;;;;5076287;28;20072;-80
2023/10/16 08:24:43;;;;;;;7.78;2.05;;;;;;;;;;5076005;28;20110;-80
2023/10/16 08:29:54;;;;;;;7.03;1.95;;;;;;;;;;5075640;28;20048;-80
2023/10/16 08:35:09;;;;;;;9.30;2.15;;;;;;;;;;5073731;28;20052;-80
2023/10/16 08:37:35;;;;;;;7.55;1.90;;;;;;;;;;5073900;28;20119;-80
2023/10/16 08:40:01;;;;;;;6.47;1.55;;;;;;;;;;5075351;28;20382;-80
2023/10/16 08:42:28;;;;;;;8.13;1.60;;;;;;;;;;5057292;28;20135;-80
2023/10/16 08:47:42;;;;;;;6.10;1.50;;;;;;;;;;5073653;28;20139;-80
2023/10/16 08:50:17;;;;;;;8.60;1.52;;;;;;;;;;5073192;28;20048;-80
2023/10/16 08:52:50;;;;;;;6.68;1.60;;;;;;;;;;5074469;28;20049;-80
2023/10/16 08:55:16;;;;;;;9.57;1.50;;;;;;;;;;5090278;28;20064;-80
2023/10/16 08:57:43;;;;;;;6.25;1.45;;;;;;;;;;5069904;28;20083;-80
2023/10/16 09:00:10;;;;;;;9.30;1.40;;;;;;;;;;5083736;28;20043;-80
2023/10/16 09:02:38;;;;;;;6.70;1.60;;;;;;;;;;5091584;28;20079;-80
2023/10/16 09:05:08;;;;;;;6.40;1.42;;;;;;;;;;5074708;28;20044;-80
2023/10/16 09:07:34;;;;;;;5.50;1.30;;;;;;;;;;5091128;28;20040;-80
2023/10/16 09:10:02;;;;;;;8.57;1.70;;;;;;;;;;5077288;28;20433;-80
2023/10/16 09:12:28;;;;;;;10.52;1.30;;;;;;;;;;5076432;28;20127;-80
2023/10/16 09:15:06;;;;;;;7.85;1.42;;;;;;;;;;5080840;28;20098;-80
2023/10/16 09:17:35;;;;;;;8.60;1.38;;;;;;;;;;5075926;28;20041;-80
2023/10/16 09:20:13;;;;;;;7.80;1.48;;;;;;;;;;5075273;28;20037;-80
2023/10/16 09:22:48;;;;;;;10.73;1.30;;;;;;;;;;5067372;28;20050;-80
2023/10/16 09:25:15;;;;;;;8.65;1.60;;;;;;;;;;5073683;28;20102;-80
2023/10/16 09:27:49;;;;;;;8.85;1.52;;;;;;;;;;5077635;28;20044;-79
2023/10/16 09:30:15;;;;;;;5.10;1.13;;;;;;;;;;5079452;28;20051;-80
2023/10/16 09:32:42;;;;;;;6.53;1.10;;;;;;;;;;5077971;28;20052;-80
2023/10/16 09:35:12;;;;;;;9.85;1.92;;;;;;;;;;5079108;28;20048;-80
2023/10/16 09:37:39;;;;;;;6.55;1.02;;;;;;;;;;5080211;28;20052;-80
2023/10/16 09:40:18;;;;;;;6.10;1.40;;;;;;;;;;5084841;28;20071;-80
2023/10/16 09:42:47;;;;;;;7.13;1.05;;;;;;;;;;5077468;28;20591;-81
2023/10/16 09:45:18;;;;;;;6.10;1.30;;;;;;;;;;5078070;28;20063;-81
2023/10/16 09:47:51;;;;;;;7.40;1.08;;;;;;;;;;5079017;28;20133;-81
2023/10/16 09:50:20;;;;;;;5.35;1.00;;;;;;;;;;5081930;28;20036;-80
2023/10/16 09:52:46;;;;;;;8.10;1.33;;;;;;;;;;5077181;28;20056;-80
2023/10/16 09:55:13;;;;;;;6.43;1.20;;;;;;;;;;5079440;28;20102;-81
2023/10/16 09:57:49;;;;;;;8.15;1.33;;;;;;;;;;5080464;28;20041;-80
2023/10/16 10:02:55;;;;;;;6.60;1.10;;;;;;;;;;5082398;28;20048;-81
2023/10/16 10:05:28;;;;;;;9.63;1.42;;;;;;;;;;5086029;28;20056;-81
2023/10/16 10:07:59;;;;;;;7.30;1.30;;;;;;;;;;5089296;28;20516;-80
2023/10/16 10:13:33;;;;;;;6.75;1.35;;;;;;;;;;5078079;28;20051;-80
2023/10/16 10:15:50;;;;;;;5.93;0.90;;;;;;;;;;5087052;28;20051;-80
2023/10/16 10:18:42;;;;;;;5.63;1.20;;;;;;;;;;5084919;28;20040;-80
2023/10/16 10:21:27;;;;;;;6.88;1.20;;;;;;;;;;5091702;28;20091;-80
2023/10/16 10:24:00;;;;;;;8.50;1.10;;;;;;;;;;5073048;28;20135;-80
2023/10/16 10:26:27;;;;;;;7.45;1.00;;;;;;;;;;5080145;28;20051;-80
2023/10/16 10:29:20;;;;;;;7.05;1.10;;;;;;;;;;5077834;28;20044;-79
2023/10/16 10:31:47;;;;;;;6.28;1.25;;;;;;;;;;5067742;28;20056;-80
2023/10/16 10:34:28;;;;;;;10.30;1.10;;;;;;;;;;5081411;28;20040;-80
2023/10/16 10:36:57;;;;;;;4.72;0.80;;;;;;;;;;5076133;28;20123;-80
2023/10/16 10:42:13;;;;;;;8.82;1.25;;;;;;;;;;5074737;28;20048;-80
2023/10/16 10:44:45;;;;;;;7.70;0.85;;;;;;;;;;5076483;28;20053;-80
2023/10/16 10:47:20;;;;;;;7.82;1.23;;;;;;;;;;5087834;28;20050;-80
2023/10/16 10:49:46;;;;;;;6.05;1.00;;;;;;;;;;5076079;28;20036;-80
2023/10/16 10:52:14;;;;;;;8.73;1.00;;;;;;;;;;5071214;28;20033;-80
2023/10/16 10:54:42;;;;;;;7.00;1.35;;;;;;;;;;5079596;28;20052;-79
2023/10/16 10:57:16;;;;;;;5.95;1.10;;;;;;;;;;5079673;28;20065;-80
2023/10/16 10:59:47;;;;;;;7.38;1.15;;;;;;;;;;5090855;28;20045;-79
2023/10/16 11:02:48;;;;;;;11.15;1.50;;;;;;;;;;5085863;28;20040;-80
2023/10/16 11:05:22;;;;;;;8.85;1.17;;;;;;;;;;5077450;28;20049;-80
2023/10/16 11:08:17;;;;;;;6.90;1.23;;;;;;;;;;5076812;28;20032;-80
2023/10/16 11:10:38;;;;;;;5.07;1.10;;;;;;;;;;5092675;28;20047;-80
2023/10/16 11:13:04;;;;;;;6.88;1.20;;;;;;;;;;5081809;28;20037;-80
2023/10/16 11:15:30;;;;;;;7.82;1.27;;;;;;;;;;5073360;28;20048;-80
2023/10/16 11:18:05;;;;;;;8.35;1.27;;;;;;;;;;5075766;28;20424;-80
2023/10/16 11:20:36;;;;;;;6.65;1.05;;;;;;;;;;5077434;28;20057;-80
2023/10/16 11:23:12;;;;;;;5.97;0.95;;;;;;;;;;5088647;28;20028;-80
2023/10/16 11:25:39;;;;;;;6.03;1.13;;;;;;;;;;5093320;28;20051;-80
2023/10/16 11:28:08;;;;;;;6.57;1.15;;;;;;;;;;5073551;28;20094;-80
2023/10/16 11:30:38;;;;;;;7.13;1.10;;;;;;;;;;5086679;28;20040;-80
2023/10/16 11:33:09;;;;;;;6.10;0.90;;;;;;;;;;5097736;28;20047;-80
2023/10/16 11:35:35;;;;;;;9.27;1.25;;;;;;;;;;5094968;28;20044;-80
2023/10/16 11:38:13;;;;;;;5.70;1.15;;;;;;;;;;5081598;28;20041;-80
2023/10/16 11:40:44;;;;;;;6.68;1.05;;;;;;;;;;5077558;28;20351;-80
2023/10/16 11:43:19;;;;;;;9.68;1.17;;;;;;;;;;5072800;28;20045;-80
2023/10/16 11:45:53;;;;;;;7.85;1.17;;;;;;;;;;5076064;28;20567;-80
2023/10/16 11:51:16;;;;;;;7.28;1.20;;;;;;;;;;5085810;28;20052;-80
2023/10/16 11:53:46;;;;;;;7.95;1.10;;;;;;;;;;5063161;28;20041;-80
2023/10/16 11:56:18;;;;;;;7.90;1.08;;;;;;;;;;5066761;28;20044;-80
2023/10/16 11:58:44;;;;;;;8.15;1.30;;;;;;;;;;5069348;28;20044;-80
2023/10/16 12:01:11;;;;;;;5.50;0.90;;;;;;;;;;5078583;28;20055;-80
2023/10/16 12:03:40;;;;;;;8.43;1.08;;;;;;;;;;5066061;28;20044;-79
2023/10/16 12:06:08;;;;;;;5.75;1.13;;;;;;;;;;5072441;28;20088;-80
2023/10/16 12:08:35;;;;;;;5.38;1.10;;;;;;;;;;5058151;28;20044;-80
2023/10/16 12:11:03;;;;;;;9.00;1.17;;;;;;;;;;5065193;28;20052;-80
2023/10/16 12:13:29;;;;;;;8.88;0.98;;;;;;;;;;5075588;28;20066;-80
2023/10/16 12:15:55;;;;;;;5.90;1.15;;;;;;;;;;5076196;28;20047;-80
2023/10/16 12:18:24;;;;;;;6.60;1.00;;;;;;;;;;5076741;28;20049;-80
2023/10/16 12:20:50;;;;;;;7.03;1.27;;;;;;;;;;5092006;28;20457;-80
2023/10/16 12:23:16;;;;;;;7.85;1.40;;;;;;;;;;5076584;28;20040;-80
2023/10/16 12:25:42;;;;;;;6.22;1.15;;;;;;;;;;5082266;28;20550;-80
2023/10/16 12:28:08;;;;;;;7.25;1.13;;;;;;;;;;5097289;28;20400;-80
2023/10/16 12:30:36;;;;;;;8.77;1.27;;;;;;;;;;5082602;28;20040;-80
2023/10/16 12:33:08;;;;;;;5.90;0.90;;;;;;;;;;5077363;28;20904;-80
2023/10/16 12:35:35;;;;;;;6.25;1.00;;;;;;;;;;5076145;28;20055;-80
2023/10/16 12:38:05;;;;;;;7.00;1.27;;;;;;;;;;5076251;28;20052;-80
2023/10/16 12:40:39;;;;;;;6.25;1.17;;;;;;;;;;5073175;28;20053;-80
2023/10/16 12:43:06;;;;;;;8.25;1.25;;;;;;;;;;5072504;28;20044;-81
2023/10/16 12:45:32;;;;;;;3.75;0.80;;;;;;;;;;5071434;28;20055;-80
2023/10/16 12:47:58;;;;;;;5.75;1.30;;;;;;;;;;5071597;28;20406;-80
2023/10/16 12:50:26;;;;;;;9.80;1.60;;;;;;;;;;5066384;28;20040;-80
2023/10/16 12:52:52;;;;;;;5.90;1.33;;;;;;;;;;5066150;28;20746;-80
2023/10/16 12:55:22;;;;;;;8.68;1.67;;;;;;;;;;5067631;28;20090;-80
2023/10/16 12:57:49;;;;;;;7.53;1.30;;;;;;;;;;5067269;28;20044;-80
2023/10/16 13:00:16;;;;;;;5.63;1.20;;;;;;;;;;5065764;28;20052;-80
2023/10/16 13:02:43;;;;;;;7.53;1.20;;;;;;;;;;5084471;28;20170;-80
2023/10/16 13:05:16;;;;;;;8.52;1.50;;;;;;;;;;5073709;28;20049;-80
2023/10/16 13:07:47;;;;;;;5.40;1.05;;;;;;;;;;5075700;28;20048;-80
2023/10/16 13:10:20;;;;;;;5.53;1.33;;;;;;;;;;5074464;28;20052;-80
2023/10/16 13:12:46;;;;;;;6.78;1.20;;;;;;;;;;5093100;28;20049;-80
2023/10/16 13:15:16;;;;;;;8.93;1.30;;;;;;;;;;5095940;28;20507;-80
2023/10/16 13:17:44;;;;;;;6.90;1.17;;;;;;;;;;5095596;28;20433;-79
2023/10/16 13:20:20;;;;;;;7.72;1.10;;;;;;;;;;5079205;28;20159;-80
2023/10/16 13:22:49;;;;;;;8.65;1.30;;;;;;;;;;5066981;28;20131;-80
2023/10/16 13:25:22;;;;;;;8.82;1.17;;;;;;;;;;5069194;28;20043;-80
2023/10/16 13:27:48;;;;;;;8.15;1.10;;;;;;;;;;5069381;28;20044;-80
2023/10/16 13:30:16;;;;;;;9.77;1.10;;;;;;;;;;5073092;28;20098;-80
2023/10/16 13:32:46;;;;;;;6.32;1.08;;;;;;;;;;5076379;28;20044;-80
2023/10/16 13:35:13;;;;;;;5.95;1.15;;;;;;;;;;5076066;28;20554;-80
2023/10/16 13:37:42;;;;;;;6.20;1.00;;;;;;;;;;5077143;28;20071;-79
2023/10/16 13:40:15;;;;;;;8.45;1.02;;;;;;;;;;5075563;28;20091;-80
2023/10/16 13:42:42;;;;;;;7.40;1.02;;;;;;;;;;5073259;28;20049;-80
2023/10/16 13:45:12;;;;;;;5.78;1.27;;;;;;;;;;5075874;28;20116;-80
2023/10/16 13:47:43;;;;;;;6.93;1.15;;;;;;;;;;5076796;28;20101;-80
2023/10/16 13:50:24;;;;;;;6.50;0.93;;;;;;;;;;5076087;28;20442;-80
2023/10/16 13:52:50;;;;;;;6.43;1.08;;;;;;;;;;5076887;28;20091;-80
2023/10/16 13:55:20;;;;;;;6.88;1.10;;;;;;;;;;5079013;28;20036;-80
2023/10/16 13:57:50;;;;;;;8.88;1.10;;;;;;;;;;5078629;28;20143;-80
2023/10/16 14:00:29;;;;;;;9.00;1.20;;;;;;;;;;5074791;28;20093;-80
2023/10/16 14:02:56;;;;;;;9.27;1.48;;;;;;;;;;5077163;28;20083;-80
2023/10/16 14:05:22;;;;;;;9.02;1.30;;;;;;;;;;5078499;28;20053;-80
2023/10/16 14:07:48;;;;;;;9.40;1.30;;;;;;;;;;5075520;28;20416;-80
2023/10/16 14:10:14;;;;;;;10.30;1.50;;;;;;;;;;5067767;28;20036;-80
2023/10/16 14:12:41;;;;;;;8.70;1.30;;;;;;;;;;5071071;28;20040;-80
2023/10/16 14:15:15;;;;;;;10.68;1.60;;;;;;;;;;5067497;28;20051;-80
2023/10/16 14:17:47;;;;;;;8.63;1.27;;;;;;;;;;5074457;28;20185;-79
2023/10/16 14:20:29;;;;;;;5.85;1.00;;;;;;;;;;5069852;28;20350;-80
2023/10/16 14:22:59;;;;;;;7.93;1.40;;;;;;;;;;5067128;28;20063;-80
2023/10/16 14:25:32;;;;;;;9.38;1.23;;;;;;;;;;5071965;28;20044;-80
2023/10/16 14:28:17;;;;;;;8.13;1.73;;;;;;;;;;5077970;28;20032;-79
2023/10/16 14:30:43;;;;;;;6.00;1.00;;;;;;;;;;5073974;28;20051;-79
2023/10/16 14:33:09;;;;;;;8.65;1.30;;;;;;;;;;5075442;28;20044;-79
2023/10/16 14:35:39;;;;;;;7.00;1.20;;;;;;;;;;5075036;28;20051;-79
2023/10/16 14:38:05;;;;;;;10.02;1.70;;;;;;;;;;5075314;28;20048;-78
2023/10/16 14:40:42;;;;;;;8.98;1.45;;;;;;;;;;5076576;28;20041;-79
2023/10/16 14:43:08;;;;;;;10.95;1.52;;;;;;;;;;5084906;28;20512;-80
2023/10/16 14:45:36;;;;;;;6.68;1.33;;;;;;;;;;5077724;28;20055;-80
2023/10/16 14:48:03;;;;;;;8.10;1.13;;;;;;;;;;5073422;28;20045;-80
2023/10/16 14:50:33;;;;;;;6.35;1.20;;;;;;;;;;5078234;28;20041;-80
2023/10/16 14:53:01;;;;;;;6.63;1.38;;;;;;;;;;5071550;28;20079;-80
2023/10/16 14:55:28;;;;;;;7.70;1.27;;;;;;;;;;5077619;28;20048;-80
2023/10/16 14:57:57;;;;;;;7.03;1.10;;;;;;;;;;5079931;28;20094;-79
2023/10/16 15:00:37;;;;;;;5.70;1.20;;;;;;;;;;5073676;28;20060;-79
2023/10/16 15:03:03;;;;;;;11.20;1.50;;;;;;;;;;5074569;28;20055;-80
2023/10/16 15:05:29;;;;;;;8.60;1.42;;;;;;;;;;5077767;28;20392;-80
2023/10/16 15:08:04;;;;;;;6.85;1.20;;;;;;;;;;5078968;28;20060;-80
2023/10/16 15:10:30;;;;;;;8.25;1.38;;;;;;;;;;5077621;28;20071;-79
2023/10/16 15:12:56;;;;;;;9.55;1.40;;;;;;;;;;5077349;28;20135;-79
2023/10/16 15:15:22;;;;;;;9.48;1.30;;;;;;;;;;5075923;28;20040;-79
2023/10/16 15:17:48;;;;;;;8.60;1.40;;;;;;;;;;5073616;28;20049;-79
2023/10/16 15:20:14;;;;;;;10.43;1.30;;;;;;;;;;5075093;28;20064;-79
2023/10/16 15:22:44;;;;;;;6.10;1.25;;;;;;;;;;5073993;28;20052;-79
2023/10/16 15:25:13;;;;;;;6.50;1.48;;;;;;;;;;5074552;28;20047;-79
2023/10/16 15:27:46;;;;;;;7.38;1.40;;;;;;;;;;5074035;28;20047;-79
2023/10/16 15:30:12;;;;;;;6.28;0.88;;;;;;;;;;5065538;28;20098;-79
2023/10/16 15:32:46;;;;;;;7.85;1.15;;;;;;;;;;5090308;28;20048;-79
2023/10/16 15:35:16;;;;;;;9.55;1.48;;;;;;;;;;5074898;28;20075;-79
2023/10/16 15:37:43;;;;;;;8.68;1.10;;;;;;;;;;5061285;28;20080;-79
2023/10/16 15:40:16;;;;;;;6.80;1.20;;;;;;;;;;5081162;28;20045;-79
2023/10/16 15:42:43;;;;;;;6.72;1.70;;;;;;;;;;5075474;28;20425;-79
2023/10/16 15:45:09;;;;;;;6.22;1.13;;;;;;;;;;5075412;28;20477;-79
2023/10/16 15:47:35;;;;;;;6.50;1.15;;;;;;;;;;5074940;28;20090;-79
2023/10/16 15:50:01;;;;;;;6.95;1.17;;;;;;;;;;5075509;28;20041;-79
2023/10/16 15:52:27;;;;;;;5.82;1.10;;;;;;;;;;5072615;28;20040;-79
2023/10/16 15:54:54;;;;;;;7.78;1.10;;;;;;;;;;5074403;28;20128;-79
2023/10/16 15:57:22;;;;;;;6.63;1.20;;;;;;;;;;5075125;28;20465;-79
2023/10/16 15:59:49;;;;;;;7.05;1.20;;;;;;;;;;5069701;28;20056;-79
2023/10/16 16:02:16;;;;;;;7.40;1.35;;;;;;;;;;5066881;28;20032;-80
2023/10/16 16:04:49;;;;;;;7.68;1.35;;;;;;;;;;5076089;28;20048;-80
2023/10/16 16:07:15;;;;;;;7.95;1.40;;;;;;;;;;5074031;28;20055;-80
2023/10/16 16:09:41;;;;;;;6.65;1.73;;;;;;;;;;5075614;28;20051;-79
2023/10/16 16:12:08;;;;;;;5.35;1.10;;;;;;;;;;5075936;28;20572;-79
2023/10/16 16:14:34;;;;;;;6.03;1.50;;;;;;;;;;5075178;28;20052;-79
2023/10/16 16:17:00;;;;;;;4.35;0.93;;;;;;;;;;5075821;28;20460;-79
2023/10/16 16:19:27;;;;;;;5.65;0.98;;;;;;;;;;5074283;28;20055;-79
2023/10/16 16:21:54;;;;;;;5.30;0.88;;;;;;;;;;5081267;28;20575;-80
2023/10/16 16:24:20;;;;;;;6.40;1.00;;;;;;;;;;5096551;28;20051;-80
2023/10/16 16:26:46;;;;;;;5.30;1.20;;;;;;;;;;5094980;28;20055;-79
2023/10/16 16:29:12;;;;;;;5.97;1.27;;;;;;;;;;5094977;28;20051;-79
2023/10/16 16:31:42;;;;;;;6.68;1.70;;;;;;;;;;5097492;28;20418;-79
2023/10/16 16:34:08;;;;;;;7.82;1.90;;;;;;;;;;5087213;28;20106;-80
2023/10/16 16:36:35;;;;;;;8.27;1.65;;;;;;;;;;5073430;28;20037;-80
2023/10/16 16:39:05;;;;;;;7.10;1.73;;;;;;;;;;5073618;28;20079;-79
2023/10/16 16:41:31;;;;;;;5.32;1.60;;;;;;;;;;5075505;28;20064;-79
2023/10/16 16:43:57;;;;;;;6.95;1.48;;;;;;;;;;5075226;28;20060;-79
2023/10/16 16:46:25;;;;;;;6.07;1.25;;;;;;;;;;5073057;28;20048;-80
2023/10/16 16:48:51;;;;;;;7.80;1.45;;;;;;;;;;5091162;28;20049;-79
2023/10/16 16:51:18;;;;;;;5.93;1.38;;;;;;;;;;5075834;28;20102;-79
2023/10/16 16:53:44;;;;;;;5.75;1.33;;;;;;;;;;5075770;28;20052;-79
2023/10/16 16:56:10;;;;;;;5.68;1.20;;;;;;;;;;5075941;28;20040;-79
2023/10/16 16:58:39;;;;;;;4.55;1.00;;;;;;;;;;5075324;28;20489;-79
2023/10/16 17:01:05;;;;;;;4.88;1.05;;;;;;;;;;5075650;28;20182;-79
2023/10/16 17:03:34;;;;;;;5.22;0.93;;;;;;;;;;5077130;28;20044;-80
2023/10/16 17:06:00;;;;;;;6.57;1.10;;;;;;;;;;5077107;28;20055;-80
2023/10/16 17:08:27;;;;;;;6.20;1.20;;;;;;;;;;5075195;28;20048;-80
2023/10/16 17:10:53;;;;;;;6.20;1.27;;;;;;;;;;5069632;28;20083;-80
2023/10/16 17:13:19;;;;;;;7.55;2.03;;;;;;;;;;5074038;28;20049;-80